Time;durP1;ratioP1;P1;durP2;ratioP2;P2;SDS_P1;SDS_P2;PMS_P1;PMS_P2;Temp;Humidity;BMP_temperature;BMP_pressure;BME280_temperature;BME280_humidity;BME280_pressure;Samples;Min_cycle;Max_cycle;Signal;HPM_P1;HPM_P2
2024/01/13 00:01:34;;;;;;;9.80;5.13;;;;;;;-0.84;100.00;101044.34;4990588;56;1140925;-80
2024/01/13 00:06:40;;;;;;;11.23;6.90;;;;;;;-0.85;100.00;101041.78;4976628;57;1139070;-77
2024/01/13 00:11:45;;;;;;;14.70;7.40;;;;;;;-0.86;100.00;101040.08;4972598;56;1141075;-83
2024/01/13 00:16:51;;;;;;;13.85;6.85;;;;;;;-0.86;100.00;101042.23;4954086;56;1140923;-80
2024/01/13 00:21:56;;;;;;;10.87;6.57;;;;;;;-0.86;100.00;101043.97;4964800;58;1140923;-84
2024/01/13 00:27:03;;;;;;;12.00;7.60;;;;;;;-0.86;100.00;101039.63;4958971;57;1140649;-76
2024/01/13 00:32:09;;;;;;;11.23;7.70;;;;;;;-0.86;100.00;101037.03;4935881;57;1140663;-76
2024/01/13 00:37:14;;;;;;;12.37;5.73;;;;;;;-0.86;100.00;101041.38;4920270;57;1140709;-79
2024/01/13 00:42:20;;;;;;;19.10;7.95;;;;;;;-0.91;100.00;101032.38;4938825;56;1141223;-78
2024/01/13 00:47:26;;;;;;;13.97;7.63;;;;;;;-0.87;100.00;101030.58;4957079;57;1141021;-81
2024/01/13 00:52:31;;;;;;;18.03;8.30;;;;;;;-0.87;100.00;101030.58;4947432;55;1140677;-79
2024/01/13 00:57:37;;;;;;;21.47;7.67;;;;;;;-0.87;100.00;101028.83;4966584;56;1140886;-79
2024/01/13 01:02:42;;;;;;;15.30;6.90;;;;;;;-0.87;100.00;101018.89;4975551;56;1140980;-86
2024/01/13 01:07:48;;;;;;;14.38;5.97;;;;;;;-0.87;100.00;101009.80;4984573;57;1141016;-81
2024/01/13 01:12:53;;;;;;;23.00;8.83;;;;;;;-0.86;100.00;101017.56;4993064;57;1140683;-82
2024/01/13 01:17:59;;;;;;;13.50;5.93;;;;;;;-0.86;100.00;101022.75;4972303;57;1141332;-79
2024/01/13 01:23:05;;;;;;;15.97;6.67;;;;;;;-0.88;100.00;101002.45;4942846;57;1140689;-78
2024/01/13 01:28:10;;;;;;;23.07;8.70;;;;;;;-0.87;100.00;100997.67;4986332;56;1141212;-76
2024/01/13 01:33:16;;;;;;;15.73;5.80;;;;;;;-0.86;100.00;101001.98;4957948;57;1141277;-81
2024/01/13 01:38:21;;;;;;;14.30;7.23;;;;;;;-0.85;100.00;100990.70;4943451;57;1141573;-80
2024/01/13 01:43:27;;;;;;;16.60;8.30;;;;;;;-0.84;100.00;100976.84;4906223;57;1140730;-77
2024/01/13 01:48:38;;;;;;;27.30;8.30;;;;;;;-0.84;100.00;100984.62;4997214;57;1140670;-80
2024/01/13 01:53:46;;;;;;;18.37;7.62;;;;;;;-0.82;100.00;100976.36;4950873;56;1141076;-80
2024/01/13 01:58:54;;;;;;;12.67;5.30;;;;;;;-0.82;100.00;100968.57;4954752;56;1141079;-79
2024/01/13 02:04:01;;;;;;;13.90;7.30;;;;;;;-0.81;100.00;100969.42;4995270;57;1141060;-82
2024/01/13 02:09:07;;;;;;;12.40;7.00;;;;;;;-0.80;100.00;100966.80;4973613;56;1141371;-78
2024/01/13 02:14:13;;;;;;;14.90;7.33;;;;;;;-0.79;100.00;100956.82;4975444;56;1140935;-84
2024/01/13 02:19:19;;;;;;;16.23;6.90;;;;;;;-0.78;100.00;100953.78;4958930;57;1140729;-83
2024/01/13 02:24:24;;;;;;;12.60;6.03;;;;;;;-0.78;100.00;100953.78;4959208;56;1140756;-81
2024/01/13 02:29:30;;;;;;;20.17;7.97;;;;;;;-0.79;100.00;100947.73;4957051;56;1140998;-79
2024/01/13 02:34:35;;;;;;;11.10;6.37;;;;;;;-0.77;100.00;100943.80;4946163;57;1141169;-78
2024/01/13 02:39:41;;;;;;;19.77;9.00;;;;;;;-0.76;100.00;100934.64;4941582;57;1141756;-81
2024/01/13 02:44:47;;;;;;;15.68;6.37;;;;;;;-0.75;100.00;100931.16;4880014;58;1140817;-82
2024/01/13 02:49:53;;;;;;;22.60;8.90;;;;;;;-0.75;100.00;100921.22;4900732;58;1141031;-75
2024/01/13 02:54:58;;;;;;;21.57;7.73;;;;;;;-0.74;100.00;100917.28;4935935;57;1140494;-83
2024/01/13 03:00:05;;;;;;;27.07;5.97;;;;;;;-0.74;100.00;100909.49;4981992;57;1140611;-80
2024/01/13 03:05:11;;;;;;;24.30;6.50;;;;;;;-0.74;100.00;100909.94;4968308;56;1141085;-78
2024/01/13 03:10:16;;;;;;;18.93;6.77;;;;;;;-0.73;100.00;100920.29;4969623;57;1141577;-84
2024/01/13 03:15:22;;;;;;;14.23;5.62;;;;;;;-0.72;100.00;100915.95;4943765;57;1140840;-79
2024/01/13 03:20:27;;;;;;;15.97;6.53;;;;;;;-0.73;100.00;100915.55;4915526;57;1140896;-81
2024/01/13 03:25:33;;;;;;;10.23;5.67;;;;;;;-0.73;100.00;100920.73;4962386;57;1140618;-75
2024/01/13 03:30:38;;;;;;;21.17;7.57;;;;;;;-0.73;100.00;100917.70;4913352;57;1148052;-82
2024/01/13 03:35:44;;;;;;;22.37;9.53;;;;;;;-0.75;100.00;100927.27;4915427;57;1141489;-82
2024/01/13 03:40:50;;;;;;;21.37;5.60;;;;;;;-0.75;100.00;100913.42;4933758;57;1140916;-80
2024/01/13 03:45:55;;;;;;;20.47;7.07;;;;;;;-0.74;100.00;100909.49;4931213;57;1141037;-81
2024/01/13 03:51:05;;;;;;;18.17;8.67;;;;;;;-0.75;100.00;100916.88;4942267;56;1141244;-76
2024/01/13 03:56:11;;;;;;;17.60;7.83;;;;;;;-0.76;100.00;100913.87;4981682;56;1141196;-81
2024/01/13 04:01:17;;;;;;;20.87;8.10;;;;;;;-0.76;100.00;100917.77;4977009;56;1140686;-78
2024/01/13 04:06:23;;;;;;;18.80;8.63;;;;;;;-0.77;100.00;100895.31;4990907;56;1140764;-76
2024/01/13 04:11:28;;;;;;;10.43;6.13;;;;;;;-0.78;100.00;100872.83;4977731;55;1140940;-81
2024/01/13 04:16:34;;;;;;;22.37;7.20;;;;;;;-0.80;100.00;100844.75;4988226;55;1141099;-80
2024/01/13 04:21:40;;;;;;;13.07;4.97;;;;;;;-0.80;100.00;100834.36;4940617;57;1141100;-76
2024/01/13 04:26:46;;;;;;;12.77;5.07;;;;;;;-0.85;100.00;100836.22;4968380;57;1140899;-80
2024/01/13 04:31:52;;;;;;;22.50;8.05;;;;;;;-0.87;100.00;100840.59;4957293;57;1140843;-78
2024/01/13 04:36:58;;;;;;;19.53;6.53;;;;;;;-0.85;100.00;100864.78;4940297;56;1140886;-80
2024/01/13 04:42:04;;;;;;;22.93;9.77;;;;;;;-0.86;100.00;100859.62;4936181;57;1141130;-82
2024/01/13 04:47:09;;;;;;;17.50;7.10;;;;;;;-0.86;100.00;100854.42;4952193;57;1256086;-78
2024/01/13 04:52:15;;;;;;;19.95;7.30;;;;;;;-0.88;100.00;100848.41;4965596;57;1140781;-81
2024/01/13 04:57:21;;;;;;;15.37;7.83;;;;;;;-0.90;100.00;100828.98;4970567;58;1140979;-79
2024/01/13 05:02:27;;;;;;;23.47;9.03;;;;;;;-0.88;100.00;100825.91;4943141;56;1141057;-79
2024/01/13 05:07:32;;;;;;;21.77;9.33;;;;;;;-0.87;100.00;100826.75;4973384;58;1140935;-78
2024/01/13 05:12:38;;;;;;;18.47;7.57;;;;;;;-0.89;100.00;100813.81;4971674;56;1141115;-79
2024/01/13 05:17:44;;;;;;;15.70;6.53;;;;;;;-0.92;100.00;100804.83;4928165;57;1140937;-82
2024/01/13 05:22:49;;;;;;;21.70;8.67;;;;;;;-0.94;100.00;100814.84;4918147;57;1140982;-78
2024/01/13 05:27:55;;;;;;;19.93;9.90;;;;;;;-0.98;100.00;100796.33;4944603;58;1141085;-87
2024/01/13 05:33:02;;;;;;;19.17;7.60;;;;;;;-0.98;100.00;100811.91;4942936;57;1141348;-78
2024/01/13 05:38:08;;;;;;;12.07;6.60;;;;;;;-0.98;100.00;100813.20;4932081;57;1141070;-78
2024/01/13 05:43:13;;;;;;;19.30;9.10;;;;;;;-1.00;100.00;100805.45;4963605;57;1140687;-81
2024/01/13 05:48:19;;;;;;;15.97;7.93;;;;;;;-1.00;100.00;100814.54;4909577;57;1140565;-86
2024/01/13 05:53:24;;;;;;;20.03;8.80;;;;;;;-1.02;100.00;100820.21;4900744;57;1141059;-83
2024/01/13 05:58:30;;;;;;;20.57;7.93;;;;;;;-1.02;100.00;100814.17;5002432;58;1140706;-78
2024/01/13 06:03:35;;;;;;;28.47;9.60;;;;;;;-1.03;100.00;100821.55;4934164;57;1141223;-79
2024/01/13 06:08:41;;;;;;;19.55;8.73;;;;;;;-1.01;100.00;100822.36;4929997;57;1141133;-78
2024/01/13 06:13:48;;;;;;;16.50;8.43;;;;;;;-1.00;100.00;100821.47;4951721;57;1141019;-85
2024/01/13 06:18:53;;;;;;;15.97;9.40;;;;;;;-0.99;100.00;100825.33;4955593;57;1140878;-74
2024/01/13 06:23:59;;;;;;;22.67;7.80;;;;;;;-0.99;100.00;100810.20;4914406;57;1141094;-80
2024/01/13 06:29:05;;;;;;;27.03;8.67;;;;;;;-1.03;100.00;100805.52;4944479;57;1140873;-84
2024/01/13 06:34:11;;;;;;;19.10;8.03;;;;;;;-1.06;100.00;100805.16;4991800;57;1141149;-77
2024/01/13 06:39:17;;;;;;;31.67;9.27;;;;;;;-1.08;100.00;100791.39;4946747;58;1140804;-79
2024/01/13 06:44:22;;;;;;;21.97;8.53;;;;;;;-1.07;100.00;100764.52;4952282;57;1140894;-82
2024/01/13 06:49:29;;;;;;;15.17;6.73;;;;;;;-1.06;100.00;100768.81;4967721;57;1141029;-75
2024/01/13 06:54:34;;;;;;;18.00;8.03;;;;;;;-1.09;100.00;100766.33;4920904;57;1140879;-78
2024/01/13 06:59:40;;;;;;;23.67;9.83;;;;;;;-1.09;100.00;100779.75;4977824;58;1141041;-81
2024/01/13 07:04:50;;;;;;;15.08;7.85;;;;;;;-1.11;100.00;100779.78;4969756;57;1141093;-82
2024/01/13 07:09:55;;;;;;;11.65;5.97;;;;;;;-1.10;100.00;100767.66;4957742;57;1141169;-76
2024/01/13 07:15:01;;;;;;;14.20;6.63;;;;;;;-1.13;100.00;100763.84;4966463;57;1141298;-86
2024/01/13 07:20:08;;;;;;;12.98;6.35;;;;;;;-1.13;100.00;100756.91;4964162;58;1141260;-74
2024/01/13 07:25:14;;;;;;;11.97;6.77;;;;;;;-1.11;100.00;100744.75;4981831;57;1141228;-81
2024/01/13 07:30:19;;;;;;;20.90;8.20;;;;;;;-1.10;100.00;100730.88;4931392;57;1141390;-82
2024/01/13 07:35:26;;;;;;;21.60;9.37;;;;;;;-1.05;100.00;100734.63;4919469;57;1140734;-77
2024/01/13 07:40:32;;;;;;;20.70;7.87;;;;;;;-1.01;100.00;100722.42;4977570;57;1141165;-81
2024/01/13 07:45:37;;;;;;;25.50;9.83;;;;;;;-1.00;100.00;100705.96;4947321;57;1141046;-80
2024/01/13 07:50:43;;;;;;;14.90;8.13;;;;;;;-1.00;100.00;100688.64;4949397;58;1141277;-83
2024/01/13 07:55:49;;;;;;;27.20;9.13;;;;;;;-0.99;100.00;100683.86;5000658;57;1140785;-84
2024/01/13 08:00:55;;;;;;;20.10;8.67;;;;;;;-0.97;100.00;100678.63;4965565;57;1140549;-75
2024/01/13 08:06:00;;;;;;;21.67;11.47;;;;;;;-0.97;100.00;100670.39;4921974;57;1141057;-79
2024/01/13 08:11:06;;;;;;;18.27;8.53;;;;;;;-0.94;100.00;100661.67;4952931;57;1142896;-76
2024/01/13 08:16:11;;;;;;;20.37;7.90;;;;;;;-0.90;100.00;100665.42;4959349;57;1140762;-80
2024/01/13 08:21:18;;;;;;;22.53;10.07;;;;;;;-0.87;100.00;100654.10;4976019;57;1140997;-78
2024/01/13 08:26:25;;;;;;;21.93;8.43;;;;;;;-0.82;100.00;100646.59;4956100;57;1143469;-76
2024/01/13 08:31:31;;;;;;;19.23;6.63;;;;;;;-0.80;100.00;100642.66;4959405;57;1141023;-75
2024/01/13 08:36:36;;;;;;;15.70;5.97;;;;;;;-0.76;100.00;100626.92;4943540;57;1140956;-78
2024/01/13 08:41:42;;;;;;;18.70;6.77;;;;;;;-0.72;100.00;100625.95;4950525;57;1140765;-81
2024/01/13 08:46:47;;;;;;;19.00;7.20;;;;;;;-0.69;100.00;100625.45;4996745;57;1140857;-78
2024/01/13 08:51:53;;;;;;;13.97;5.07;;;;;;;-0.66;100.00;100624.92;4937431;57;1140839;-75
2024/01/13 08:56:58;;;;;;;10.23;4.53;;;;;;;-0.59;100.00;100604.80;4965010;57;1140494;-83
2024/01/13 09:02:06;;;;;;;15.40;4.23;;;;;;;-0.54;100.00;100604.21;4946540;57;1141171;-79
2024/01/13 09:07:12;;;;;;;7.23;3.60;;;;;;;-0.50;100.00;100604.53;4958145;57;1140972;-75
2024/01/13 09:12:17;;;;;;;11.53;3.62;;;;;;;-0.45;100.00;100594.82;4960543;58;1138818;-79
2024/01/13 09:17:23;;;;;;;18.83;4.83;;;;;;;-0.42;100.00;100589.53;4924549;57;1140940;-87
2024/01/13 09:22:28;;;;;;;7.58;2.95;;;;;;;-0.38;100.00;100569.91;4993739;58;1141096;-81
2024/01/13 09:27:34;;;;;;;15.95;5.30;;;;;;;-0.33;100.00;100564.58;4949102;57;1139081;-76
2024/01/13 09:32:39;;;;;;;22.23;5.00;;;;;;;-0.29;100.00;100547.97;4929335;57;1141107;-84
2024/01/13 09:37:45;;;;;;;17.70;7.45;;;;;;;-0.25;100.00;100537.03;4932455;57;1141194;-83
2024/01/13 09:43:07;;;;;;;6.00;2.77;;;;;;;-0.22;100.00;100523.49;4925145;57;1140957;-78
2024/01/13 09:48:17;;;;;;;12.13;4.57;;;;;;;-0.21;100.00;100521.74;4929679;57;1138723;-79
2024/01/13 09:53:31;;;;;;;11.27;5.23;;;;;;;-0.16;100.00;100514.20;4984076;56;1141576;-77
2024/01/13 09:58:39;;;;;;;12.97;6.10;;;;;;;-0.09;100.00;100515.67;4987087;57;1141073;-77
2024/01/13 10:03:46;;;;;;;10.00;4.47;;;;;;;-0.01;100.00;100492.88;4970919;56;1242675;-80
2024/01/13 10:08:52;;;;;;;11.68;4.15;;;;;;;0.05;100.00;100480.09;4983281;56;1140922;-82
2024/01/13 10:14:07;;;;;;;5.53;3.13;;;;;;;0.11;100.00;100473.84;4960407;56;1138877;-74
2024/01/13 10:19:13;;;;;;;8.80;4.20;;;;;;;0.14;100.00;100470.69;4977766;57;1136520;-80
2024/01/13 10:24:20;;;;;;;14.63;6.40;;;;;;;0.19;100.00;100472.66;4976343;56;1136678;-74
2024/01/13 10:29:26;;;;;;;19.37;8.97;;;;;;;0.20;100.00;100466.55;4998901;56;1138564;-75
2024/01/13 10:34:31;;;;;;;16.37;7.73;;;;;;;0.20;100.00;100450.95;4965570;56;1138725;-75
2024/01/13 10:39:37;;;;;;;11.50;5.43;;;;;;;0.25;100.00;100429.53;4978173;56;1138938;-72
2024/01/13 10:44:47;;;;;;;9.77;4.60;;;;;;;0.32;100.00;100415.38;4968022;58;1138842;-76
2024/01/13 10:49:53;;;;;;;8.47;4.07;;;;;;;0.37;100.00;100401.36;4939645;57;1137342;-82
2024/01/13 10:55:08;;;;;;;12.57;3.67;;;;;;;0.40;100.00;100391.70;4986425;56;1136614;-80
2024/01/13 11:00:10;;;;;;;12.45;5.00;;;;;;;0.44;100.00;100387.23;4955896;56;1138890;-77
2024/01/13 11:05:17;;;;;;;12.93;5.10;;;;;;;0.44;100.00;100389.83;4971986;56;1138879;-80
2024/01/13 11:10:33;;;;;;;8.37;3.30;;;;;;;0.43;100.00;100373.38;4955390;56;1138808;-76
2024/01/13 11:16:04;;;;;;;20.13;7.47;;;;;;;0.47;100.00;100368.87;4970345;57;1136733;-84
2024/01/13 11:21:11;;;;;;;6.10;3.50;;;;;;;0.47;100.00;100357.17;4965644;57;1139127;-80
2024/01/13 11:26:37;;;;;;;8.37;4.30;;;;;;;0.48;100.00;100336.30;4918177;57;1136889;-79
2024/01/13 11:31:50;;;;;;;6.63;3.23;;;;;;;0.49;100.00;100338.45;4954394;57;1137021;-80
2024/01/13 11:36:56;;;;;;;5.57;3.13;;;;;;;0.51;100.00;100324.93;4934167;57;1136956;-76
2024/01/13 11:42:04;;;;;;;8.47;4.10;;;;;;;0.51;100.00;100324.93;5003715;57;1136580;-76
2024/01/13 11:47:11;;;;;;;6.13;3.30;;;;;;;0.52;100.00;100313.61;4902454;56;1136441;-77
2024/01/13 11:52:32;;;;;;;9.27;3.93;;;;;;;0.53;100.00;100307.05;4899314;55;1136870;-77
2024/01/13 11:57:39;;;;;;;11.00;4.03;;;;;;;0.53;100.00;100294.50;4832788;57;1136553;-80
2024/01/13 12:02:44;;;;;;;30.47;9.00;;;;;;;0.48;100.00;100271.70;4812264;57;1138860;-76
2024/01/13 12:07:51;;;;;;;9.50;2.93;;;;;;;0.46;100.00;100259.24;4821841;58;1138702;-77
2024/01/13 12:13:03;;;;;;;3.43;2.70;;;;;;;0.46;100.00;100252.73;4841774;59;1136525;-81
2024/01/13 12:18:09;;;;;;;2.47;1.80;;;;;;;0.47;100.00;100233.14;4818347;58;1136493;-79
2024/01/13 12:23:15;;;;;;;2.02;1.82;;;;;;;0.50;100.00;100233.02;4859365;58;1137682;-78
2024/01/13 12:28:21;;;;;;;8.53;3.12;;;;;;;0.52;100.00;100199.13;4904170;59;1136655;-81
2024/01/13 12:33:27;;;;;;;4.20;2.30;;;;;;;0.56;100.00;100180.73;4917160;57;1136732;-85
2024/01/13 12:38:33;;;;;;;13.03;6.40;;;;;;;0.59;100.00;100175.86;4933070;57;1136531;-78
2024/01/13 12:43:39;;;;;;;7.10;3.40;;;;;;;0.62;100.00;100164.00;5010410;56;1138759;-81
2024/01/13 12:48:45;;;;;;;3.07;2.57;;;;;;;0.61;100.00;100147.54;4937146;57;1136837;-77
2024/01/13 12:53:50;;;;;;;3.43;3.10;;;;;;;0.62;100.00;100150.53;4970491;57;1136592;-77
2024/01/13 12:58:56;;;;;;;7.10;4.27;;;;;;;0.60;100.00;100148.48;4986678;56;1136542;-78
2024/01/13 13:04:03;;;;;;;5.37;3.57;;;;;;;0.61;100.00;100136.31;4984951;56;1136887;-79
2024/01/13 13:09:10;;;;;;;3.40;2.40;;;;;;;0.60;100.00;100134.63;4980600;57;1136980;-82
2024/01/13 13:14:15;;;;;;;3.35;2.80;;;;;;;0.57;100.00;100125.19;4973425;56;1136718;-83
2024/01/13 13:19:21;;;;;;;9.60;5.23;;;;;;;0.56;100.00;100101.37;5000941;57;1136778;-81
2024/01/13 13:24:26;;;;;;;11.93;6.00;;;;;;;0.56;100.00;100094.03;4968611;55;1136612;-80
2024/01/13 13:29:32;;;;;;;7.43;4.00;;;;;;;0.54;100.00;100082.38;4951301;55;1139052;-78
2024/01/13 13:34:38;;;;;;;10.87;5.40;;;;;;;0.53;100.00;100087.65;4980815;57;1136693;-77
2024/01/13 13:39:43;;;;;;;5.90;4.50;;;;;;;0.53;100.00;100063.78;4945321;57;1138471;-76
2024/01/13 13:44:49;;;;;;;4.90;3.33;;;;;;;0.53;100.00;100046.87;4874655;58;1136845;-81
2024/01/13 13:49:54;;;;;;;5.17;4.67;;;;;;;0.54;100.00;100049.86;4838842;58;1136836;-81
2024/01/13 13:55:00;;;;;;;4.87;2.90;;;;;;;0.53;100.00;100031.25;4927343;58;1136726;-81
2024/01/13 14:00:07;;;;;;;4.90;3.60;;;;;;;0.53;100.00;100031.25;4979171;57;1136618;-79
2024/01/13 14:05:13;;;;;;;7.37;3.67;;;;;;;0.55;100.00;100027.29;4959255;56;1136878;-82
2024/01/13 14:10:19;;;;;;;5.33;3.40;;;;;;;0.56;100.00;100027.68;4985361;57;1136882;-79
2024/01/13 14:15:25;;;;;;;8.30;4.53;;;;;;;0.53;100.00;100002.64;4961359;55;1136824;-75
2024/01/13 14:20:32;;;;;;;4.60;3.60;;;;;;;0.53;100.00;99988.33;4953539;56;1136696;-83
2024/01/13 14:25:37;;;;;;;5.40;3.87;;;;;;;0.53;100.00;99988.78;4962637;56;1134612;-77
2024/01/13 14:30:44;;;;;;;7.67;4.00;;;;;;;0.53;100.00;99984.42;4960348;57;1134510;-79
2024/01/13 14:35:50;;;;;;;6.47;3.00;;;;;;;0.53;100.00;99977.92;4988623;55;1134632;-78
2024/01/13 14:40:56;;;;;;;4.20;3.80;;;;;;;0.52;100.00;99967.12;4914815;57;1134770;-80
2024/01/13 14:46:02;;;;;;;6.45;5.37;;;;;;;0.53;100.00;99951.05;4947116;56;1134571;-80
2024/01/13 14:51:08;;;;;;;3.30;3.00;;;;;;;0.50;100.00;99941.63;4944126;56;1134558;-81
2024/01/13 14:56:14;;;;;;;18.10;10.90;;;;;;;0.52;100.00;99944.16;4963177;55;1134705;-84
2024/01/13 15:01:20;;;;;;;3.70;3.40;;;;;;;0.53;100.00;99944.09;4995468;56;1138721;-80
2024/01/13 15:06:27;;;;;;;4.60;3.07;;;;;;;0.54;100.00;99930.63;4972200;57;1134640;-77
2024/01/13 15:11:33;;;;;;;10.77;6.43;;;;;;;0.53;100.00;99916.78;4974842;56;1134402;-83
2024/01/13 15:16:39;;;;;;;2.70;2.10;;;;;;;0.52;100.00;99911.64;4992876;56;1136330;-81
2024/01/13 15:21:47;;;;;;;4.63;2.70;;;;;;;0.50;100.00;99900.46;4965641;56;1134635;-73
2024/01/13 15:26:52;;;;;;;4.97;2.90;;;;;;;0.50;100.00;99907.80;4942063;56;1135169;-87
2024/01/13 15:31:58;;;;;;;4.13;3.30;;;;;;;0.49;100.00;99898.31;4918756;56;1134417;-78
2024/01/13 15:37:29;;;;;;;4.50;2.75;;;;;;;0.49;100.00;99893.11;4908051;57;1134532;-83
2024/01/13 15:42:34;;;;;;;2.97;2.60;;;;;;;0.48;100.00;99881.02;4919265;57;1134724;-75
2024/01/13 15:47:40;;;;;;;2.67;2.20;;;;;;;0.48;100.00;99881.02;4957889;58;1134870;-74
2024/01/13 15:52:47;;;;;;;8.50;4.30;;;;;;;0.47;100.00;99868.92;4937713;58;1134684;-84
2024/01/13 15:57:52;;;;;;;1.80;1.70;;;;;;;0.48;100.00;99861.50;4970308;56;1135074;-77
2024/01/13 16:02:58;;;;;;;3.00;2.40;;;;;;;0.48;100.00;99856.30;4988856;56;1134732;-78
2024/01/13 16:08:04;;;;;;;4.35;3.27;;;;;;;0.50;100.00;99842.77;4949253;57;1134192;-78
2024/01/13 16:13:10;;;;;;;3.77;3.37;;;;;;;0.50;100.00;99832.82;4972143;56;1134572;-79
2024/01/13 16:18:16;;;;;;;34.88;16.67;;;;;;;0.50;100.00;99830.22;4934255;56;1134770;-81
2024/01/13 16:23:22;;;;;;;3.58;3.05;;;;;;;0.52;100.00;99822.73;4953580;57;1138632;-75
2024/01/13 16:28:27;;;;;;;3.03;2.73;;;;;;;0.51;100.00;99801.53;4925325;57;1161050;-77
2024/01/13 16:33:33;;;;;;;4.70;3.57;;;;;;;0.51;100.00;99789.83;4961994;56;1134710;-78
2024/01/13 16:38:39;;;;;;;15.20;6.83;;;;;;;0.48;100.00;99786.52;4924302;57;1135398;-84
2024/01/13 16:43:45;;;;;;;8.73;5.03;;;;;;;0.50;100.00;99775.13;4936224;56;1137637;-80
2024/01/13 16:48:50;;;;;;;15.27;4.30;;;;;;;0.50;100.00;99775.13;4947994;57;1135283;-79
2024/01/13 16:53:56;;;;;;;7.40;3.83;;;;;;;0.50;100.00;99776.43;4977658;56;1137543;-78
2024/01/13 16:59:01;;;;;;;2.37;2.03;;;;;;;0.48;100.00;99769.16;4969870;57;1134403;-79
2024/01/13 17:04:07;;;;;;;7.90;4.27;;;;;;;0.45;100.00;99764.13;4939374;57;1134893;-82
2024/01/13 17:09:12;;;;;;;7.67;4.80;;;;;;;0.45;100.00;99755.48;4964699;57;1237990;-85
2024/01/13 17:14:20;;;;;;;3.83;2.92;;;;;;;0.45;100.00;99758.08;4961079;57;1135345;-76
2024/01/13 17:19:26;;;;;;;5.07;3.60;;;;;;;0.44;100.00;99753.80;4952785;57;1179300;-73
2024/01/13 17:24:32;;;;;;;15.90;7.53;;;;;;;0.39;100.00;99741.45;4952902;56;1221737;-78
2024/01/13 17:29:38;;;;;;;3.17;2.87;;;;;;;0.38;100.00;99734.11;4950887;57;1243655;-82
2024/01/13 17:34:43;;;;;;;3.20;3.00;;;;;;;0.38;100.00;99721.56;4962837;55;1232346;-80
2024/01/13 17:39:50;;;;;;;12.20;6.33;;;;;;;0.38;100.00;99718.96;4942676;57;1250706;-82
2024/01/13 17:45:00;;;;;;;5.37;3.50;;;;;;;0.39;100.00;99707.19;4976461;56;1137134;-75
2024/01/13 17:50:03;;;;;;;6.47;3.77;;;;;;;0.40;100.00;99701.53;4939322;56;1240098;-79
2024/01/13 17:55:09;;;;;;;16.13;6.80;;;;;;;0.40;100.00;99691.97;4968286;56;1251309;-78
2024/01/13 18:00:17;;;;;;;5.10;3.40;;;;;;;0.41;100.00;99698.02;4982006;56;1250388;-79
2024/01/13 18:05:23;;;;;;;10.48;5.90;;;;;;;0.40;100.00;99680.27;4991498;57;1135370;-83
2024/01/13 18:10:29;;;;;;;3.33;3.10;;;;;;;0.41;100.00;99675.44;4938403;57;1136849;-81
2024/01/13 18:15:35;;;;;;;11.87;5.87;;;;;;;0.40;100.00;99667.25;4918027;57;1223949;-78
2024/01/13 18:20:40;;;;;;;3.53;3.27;;;;;;;0.38;100.00;99656.08;4917526;57;1244346;-80
2024/01/13 18:25:46;;;;;;;14.77;5.93;;;;;;;0.33;100.00;99639.39;4935111;57;1240545;-83
2024/01/13 18:30:51;;;;;;;8.17;4.30;;;;;;;0.34;100.00;99628.08;4897920;57;1249627;-82
2024/01/13 18:35:57;;;;;;;16.67;9.73;;;;;;;0.33;100.00;99628.99;4954293;57;1134811;-80
2024/01/13 18:41:02;;;;;;;15.73;8.27;;;;;;;0.33;100.00;99605.59;4899995;57;1136897;-81
2024/01/13 18:46:08;;;;;;;10.00;5.33;;;;;;;0.35;100.00;99614.16;4956603;57;1136873;-80
2024/01/13 18:51:13;;;;;;;4.20;3.47;;;;;;;0.36;100.00;99604.59;4935783;57;1181260;-77
2024/01/13 18:56:19;;;;;;;5.78;3.58;;;;;;;0.38;100.00;99609.27;4958842;57;1134656;-83
2024/01/13 19:01:28;;;;;;;5.63;3.40;;;;;;;0.40;100.00;99607.44;4959402;57;1134668;-82
2024/01/13 19:06:34;;;;;;;4.60;3.52;;;;;;;0.42;100.00;99598.25;4951011;57;1134607;-80
2024/01/13 19:11:40;;;;;;;7.03;3.80;;;;;;;0.46;100.00;99596.70;4926872;57;1134633;-83
2024/01/13 19:16:45;;;;;;;6.70;3.77;;;;;;;0.47;100.00;99582.78;4890736;57;1134922;-75
2024/01/13 19:21:53;;;;;;;3.73;3.43;;;;;;;0.49;100.00;99580.94;4935075;57;1142262;-74
2024/01/13 19:26:58;;;;;;;7.73;4.40;;;;;;;0.48;100.00;99583.16;4972694;57;1173812;-82
2024/01/13 19:32:03;;;;;;;5.20;4.17;;;;;;;0.49;100.00;99579.64;4944574;56;1134607;-77
2024/01/13 19:37:09;;;;;;;5.80;4.80;;;;;;;0.50;100.00;99571.38;4964836;57;1134666;-77
2024/01/13 19:42:18;;;;;;;6.05;3.92;;;;;;;0.48;100.00;99562.34;4946466;56;1134721;-74
2024/01/13 19:47:22;;;;;;;6.97;4.03;;;;;;;0.48;100.00;99558.91;5019329;55;1134590;-73
2024/01/13 19:52:28;;;;;;;3.80;3.43;;;;;;;0.45;100.00;99532.62;4958033;56;1134871;-76
2024/01/13 19:57:33;;;;;;;3.77;3.37;;;;;;;0.45;100.00;99519.61;4990690;57;1134872;-81
2024/01/13 20:02:39;;;;;;;5.90;3.07;;;;;;;0.45;100.00;99518.77;4984403;56;1134608;-84
2024/01/13 20:07:44;;;;;;;4.60;3.50;;;;;;;0.47;100.00;99511.24;4977128;55;1134768;-79
2024/01/13 20:12:50;;;;;;;3.97;3.27;;;;;;;0.51;100.00;99498.92;4982528;57;1134732;-75
2024/01/13 20:17:55;;;;;;;3.42;3.12;;;;;;;0.55;100.00;99479.64;4972789;57;1134626;-75
2024/01/13 20:23:01;;;;;;;5.00;4.50;;;;;;;0.59;100.00;99478.56;4968276;57;1134544;-79
2024/01/13 20:28:07;;;;;;;4.97;4.17;;;;;;;0.63;100.00;99469.19;4983310;56;1134483;-80
2024/01/13 20:33:14;;;;;;;6.33;3.97;;;;;;;0.67;100.00;99462.91;4997087;57;1134413;-77
2024/01/13 20:38:19;;;;;;;3.90;3.50;;;;;;;0.70;100.00;99464.51;5002769;57;1144271;-82
2024/01/13 20:43:25;;;;;;;3.90;3.60;;;;;;;0.72;100.00;99462.66;4964116;57;1134988;-79
2024/01/13 20:48:30;;;;;;;6.83;4.50;;;;;;;0.70;100.00;99459.30;4937099;57;1134514;-81
2024/01/13 20:53:36;;;;;;;6.05;3.90;;;;;;;0.78;100.00;99448.00;4977330;57;1134699;-77
2024/01/13 20:58:42;;;;;;;4.30;3.90;;;;;;;0.81;100.00;99453.50;4981315;57;1134867;-82
2024/01/13 21:03:47;;;;;;;3.07;2.80;;;;;;;0.82;100.00;99441.71;4927948;57;1134597;-79
2024/01/13 21:08:54;;;;;;;4.47;4.07;;;;;;;0.83;100.00;99436.89;4946211;57;1134954;-78
2024/01/13 21:14:00;;;;;;;4.87;3.80;;;;;;;0.84;100.00;99426.86;4908632;57;1134451;-84
2024/01/13 21:19:06;;;;;;;4.57;4.17;;;;;;;0.85;100.00;99419.89;4959641;57;1134864;-82
2024/01/13 21:24:11;;;;;;;3.15;2.87;;;;;;;0.85;100.00;99414.68;4958099;57;1134834;-79
2024/01/13 21:29:17;;;;;;;8.18;3.87;;;;;;;0.85;100.00;99405.11;4925343;57;1134617;-78
2024/01/13 21:34:24;;;;;;;4.47;4.07;;;;;;;0.86;100.00;99403.34;4961240;57;1134530;-80
2024/01/13 21:39:30;;;;;;;6.07;4.43;;;;;;;0.87;100.00;99399.83;4966502;58;1134553;-75
2024/01/13 21:44:36;;;;;;;4.30;3.90;;;;;;;0.89;100.00;99386.27;4950887;57;1134927;-81
2024/01/13 21:49:41;;;;;;;8.15;4.95;;;;;;;0.90;100.00;99381.44;4944217;58;1134899;-80
2024/01/13 21:54:47;;;;;;;6.80;4.00;;;;;;;0.95;100.00;99393.71;4930562;57;1134866;-80
2024/01/13 21:59:53;;;;;;;3.33;3.03;;;;;;;0.98;100.00;99378.77;4988612;56;1134635;-82
2024/01/13 22:04:59;;;;;;;4.93;4.13;;;;;;;1.01;100.00;99383.80;4954980;56;1134657;-80
2024/01/13 22:10:06;;;;;;;8.50;4.90;;;;;;;1.04;100.00;99386.24;4943034;56;1134568;-78
2024/01/13 22:15:12;;;;;;;8.97;3.43;;;;;;;1.06;100.00;99373.14;4954039;56;1135506;-75
2024/01/13 22:20:18;;;;;;;5.77;4.03;;;;;;;1.08;100.00;99363.45;4974088;57;1134916;-76
2024/01/13 22:25:25;;;;;;;7.50;3.80;;;;;;;1.11;100.00;99363.28;4938464;57;1134641;-79
2024/01/13 22:30:30;;;;;;;3.77;3.00;;;;;;;1.15;100.00;99356.14;4951506;56;1134650;-74
2024/01/13 22:35:36;;;;;;;4.42;3.55;;;;;;;1.17;100.00;99346.48;4985382;57;1134765;-84
2024/01/13 22:40:42;;;;;;;3.97;2.83;;;;;;;1.19;100.00;99334.21;4903553;57;1134772;-78
2024/01/13 22:45:47;;;;;;;5.20;3.37;;;;;;;1.21;100.00;99333.66;4959056;57;1134633;-76
2024/01/13 22:50:53;;;;;;;2.57;2.37;;;;;;;1.20;100.00;99328.08;4986654;56;1134938;-83
2024/01/13 22:55:59;;;;;;;6.37;4.00;;;;;;;1.20;100.00;99321.56;4976080;57;1134855;-76
2024/01/13 23:01:04;;;;;;;3.40;3.03;;;;;;;1.20;100.00;99313.75;4968170;57;1134581;-77